Time;durP1;ratioP1;P1;durP2;ratioP2;P2;SDS_P1;SDS_P2;PMS_P1;PMS_P2;Temp;Humidity;BMP_temperature;BMP_pressure;BME280_temperature;BME280_humidity;BME280_pressure;Samples;Min_cycle;Max_cycle;Signal;HPM_P1;HPM_P2
2023/01/01 00:00:47;;;;;;;23.42;12.77;;;13.90;99.90;;;;;;5018208;28;20194;-84
2023/01/01 00:03:13;;;;;;;17.85;12.63;;;13.80;99.90;;;;;;5014143;28;20183;-82
2023/01/01 00:05:39;;;;;;;27.13;11.80;;;13.80;99.90;;;;;;5023454;28;20622;-83
2023/01/01 00:08:05;;;;;;;19.40;11.20;;;13.80;99.90;;;;;;5012388;28;20183;-83
2023/01/01 00:10:32;;;;;;;15.07;9.50;;;13.80;99.90;;;;;;5012693;28;20191;-86
2023/01/01 00:12:58;;;;;;;15.77;8.73;;;13.80;99.90;;;;;;5019629;28;20179;-87
2023/01/01 00:15:26;;;;;;;25.05;8.27;;;13.80;99.90;;;;;;5029168;28;20191;-90
2023/01/01 00:17:52;;;;;;;15.02;7.47;;;13.80;99.90;;;;;;5014416;28;20614;-84
2023/01/01 00:20:18;;;;;;;12.77;7.28;;;13.80;99.90;;;;;;5015597;28;20202;-85
2023/01/01 00:22:44;;;;;;;13.30;6.80;;;13.80;99.90;;;;;;5013594;28;20202;-84
2023/01/01 00:25:14;;;;;;;12.68;7.05;;;13.80;99.90;;;;;;5014568;28;20180;-83
2023/01/01 00:27:42;;;;;;;12.55;6.63;;;13.90;99.90;;;;;;5029988;28;20218;-84
2023/01/01 00:30:09;;;;;;;13.25;8.23;;;13.90;99.90;;;;;;5016087;28;20618;-83
2023/01/01 00:32:35;;;;;;;21.45;10.68;;;13.90;99.90;;;;;;5015559;28;20195;-84
2023/01/01 00:35:01;;;;;;;19.42;10.63;;;13.90;99.90;;;;;;5015906;28;20211;-84
2023/01/01 00:37:27;;;;;;;18.55;9.02;;;13.90;99.90;;;;;;5013495;28;20226;-85
2023/01/01 00:39:53;;;;;;;13.43;8.45;;;13.80;99.90;;;;;;5016069;28;20186;-83
2023/01/01 00:42:19;;;;;;;17.15;8.30;;;13.80;99.90;;;;;;5015426;28;20183;-86
2023/01/01 00:44:45;;;;;;;17.58;7.50;;;13.80;99.90;;;;;;5014977;28;20577;-85
2023/01/01 00:47:10;;;;;;;12.40;6.38;;;13.90;99.90;;;;;;5014583;28;20215;-83
2023/01/01 00:49:36;;;;;;;10.88;6.30;;;13.90;99.90;;;;;;5014258;28;20621;-85
2023/01/01 00:52:02;;;;;;;15.55;5.85;;;13.90;99.90;;;;;;5460186;22;20230;-83
2023/01/01 00:54:28;;;;;;;13.40;5.68;;;13.90;99.90;;;;;;5030015;28;20343;-82
2023/01/01 00:56:54;;;;;;;12.90;5.40;;;13.90;99.90;;;;;;5021553;28;20680;-83
2023/01/01 00:59:20;;;;;;;7.18;4.85;;;13.80;99.90;;;;;;5023778;28;20191;-84
2023/01/01 01:01:46;;;;;;;12.48;4.50;;;13.70;99.90;;;;;;5037893;28;20225;-83
2023/01/01 01:04:11;;;;;;;13.50;4.72;;;13.70;99.90;;;;;;5033569;28;20512;-82
2023/01/01 01:06:37;;;;;;;7.15;3.80;;;13.70;99.90;;;;;;5033821;28;20202;-85
2023/01/01 01:09:03;;;;;;;8.60;3.90;;;13.70;99.90;;;;;;5035820;28;20166;-90
2023/01/01 01:11:29;;;;;;;10.18;3.83;;;13.70;99.90;;;;;;5035277;28;20175;-86
2023/01/01 01:13:56;;;;;;;8.18;3.50;;;13.80;99.90;;;;;;5034990;28;20224;-84
2023/01/01 01:16:30;;;;;;;6.72;3.38;;;13.90;99.90;;;;;;5035490;28;20249;-93
2023/01/01 01:18:59;;;;;;;12.57;3.75;;;13.90;99.90;;;;;;5033892;28;20186;-85
2023/01/01 01:21:26;;;;;;;8.18;3.60;;;13.90;99.90;;;;;;5034620;28;20244;-87
2023/01/01 01:23:53;;;;;;;9.23;3.58;;;14.00;99.90;;;;;;5033351;28;20568;-88
2023/01/01 01:26:24;;;;;;;10.52;3.90;;;13.90;99.90;;;;;;5034912;28;20623;-84
2023/01/01 01:28:50;;;;;;;5.85;3.17;;;13.90;99.90;;;;;;5033626;28;20557;-83
2023/01/01 01:31:17;;;;;;;11.65;3.33;;;13.90;99.90;;;;;;5035010;28;20174;-86
2023/01/01 01:33:45;;;;;;;6.82;3.15;;;14.00;99.90;;;;;;5033992;28;20186;-90
2023/01/01 01:36:13;;;;;;;13.20;2.95;;;14.00;99.90;;;;;;5030220;28;20194;-88
2023/01/01 01:38:39;;;;;;;12.23;3.35;;;14.00;99.90;;;;;;5034245;28;20166;-84
2023/01/01 01:41:05;;;;;;;10.68;3.13;;;14.00;99.90;;;;;;5034711;28;20711;-83
2023/01/01 01:43:34;;;;;;;5.65;2.50;;;14.00;99.90;;;;;;5034412;28;20174;-84
2023/01/01 01:46:19;;;;;;;10.73;2.60;;;14.00;99.90;;;;;;5032036;28;20663;-85
2023/01/01 01:48:48;;;;;;;8.45;2.40;;;14.00;99.90;;;;;;5033768;28;20167;-85
2023/01/01 01:51:16;;;;;;;9.95;3.13;;;14.00;99.90;;;;;;5033669;28;20269;-84
2023/01/01 01:53:50;;;;;;;10.77;2.60;;;14.00;99.90;;;;;;5033136;28;20244;-85
2023/01/01 01:56:26;;;;;;;6.70;2.78;;;14.00;99.90;;;;;;5035303;28;20167;-83
2023/01/01 01:58:52;;;;;;;6.45;2.75;;;14.00;99.90;;;;;;5050442;28;20198;-83
2023/01/01 02:01:17;;;;;;;5.07;2.45;;;14.00;99.90;;;;;;5034127;28;20503;-84
2023/01/01 02:03:53;;;;;;;8.65;2.55;;;14.10;99.90;;;;;;5033431;28;20524;-84
2023/01/01 02:06:19;;;;;;;15.50;3.33;;;14.10;99.90;;;;;;5033712;28;20202;-83
2023/01/01 02:08:46;;;;;;;13.05;2.65;;;14.00;99.90;;;;;;5034459;28;20197;-84
2023/01/01 02:11:11;;;;;;;7.63;2.50;;;14.00;99.90;;;;;;5034872;28;20213;-84
2023/01/01 02:13:37;;;;;;;6.32;2.63;;;14.10;99.90;;;;;;5033338;28;20197;-84
2023/01/01 02:16:03;;;;;;;5.95;2.50;;;14.10;99.90;;;;;;5034993;28;20163;-85
2023/01/01 02:18:45;;;;;;;5.97;2.25;;;14.10;99.90;;;;;;5040473;28;20629;-89
2023/01/01 02:21:16;;;;;;;4.13;2.15;;;14.10;99.90;;;;;;5014400;28;20179;-84
2023/01/01 02:24:10;;;;;;;5.93;2.13;;;14.20;99.90;;;;;;5026857;28;20202;-85
2023/01/01 02:26:53;;;;;;;6.85;2.47;;;14.30;99.90;;;;;;5030119;28;20207;-84
2023/01/01 02:29:45;;;;;;;5.35;2.60;;;14.20;99.90;;;;;;5029539;28;20510;-86
2023/01/01 02:32:18;;;;;;;7.45;2.65;;;14.20;99.90;;;;;;5029473;28;20191;-84
2023/01/01 02:34:50;;;;;;;4.75;2.05;;;14.20;99.90;;;;;;5014832;28;20558;-88
2023/01/01 02:37:18;;;;;;;9.88;2.65;;;14.20;99.90;;;;;;5014298;28;20175;-85
2023/01/01 02:39:49;;;;;;;9.90;2.38;;;14.10;99.90;;;;;;5013457;28;20176;-85
2023/01/01 02:42:16;;;;;;;10.77;2.50;;;14.10;99.90;;;;;;5029900;28;20186;-84
2023/01/01 02:44:46;;;;;;;6.55;2.67;;;14.10;99.90;;;;;;5014793;28;20179;-84
2023/01/01 02:47:16;;;;;;;5.45;2.00;;;14.10;99.90;;;;;;5014479;28;20214;-85
2023/01/01 02:50:03;;;;;;;6.13;2.28;;;14.10;99.90;;;;;;5014438;28;20155;-83
2023/01/01 02:52:28;;;;;;;6.85;2.33;;;14.10;99.90;;;;;;5028720;28;20237;-84
2023/01/01 02:55:26;;;;;;;7.18;2.45;;;14.00;99.90;;;;;;5029648;28;20522;-84
2023/01/01 03:01:30;;;;;;;6.57;2.40;;;13.80;99.90;;;;;;5014360;28;20526;-84
2023/01/01 03:04:32;;;;;;;7.30;2.50;;;13.70;99.90;;;;;;5012551;28;20184;-84
2023/01/01 03:07:12;;;;;;;11.13;3.38;;;13.70;99.90;;;;;;5029044;28;20254;-84
2023/01/01 03:09:55;;;;;;;8.38;3.50;;;13.70;99.90;;;;;;5014421;28;20189;-85
2023/01/01 03:12:59;;;;;;;9.27;3.38;;;13.60;99.90;;;;;;5029698;28;20261;-83
2023/01/01 03:15:45;;;;;;;8.02;3.10;;;13.60;99.90;;;;;;5014490;28;20163;-85
2023/01/01 03:18:17;;;;;;;10.05;3.15;;;13.60;99.90;;;;;;5014442;28;20167;-84
2023/01/01 03:20:47;;;;;;;8.27;3.08;;;13.60;99.90;;;;;;5014251;28;20225;-84
2023/01/01 03:23:25;;;;;;;6.95;3.28;;;13.60;99.90;;;;;;5022125;28;20194;-86
2023/01/01 03:25:54;;;;;;;10.35;3.33;;;13.50;99.90;;;;;;5029601;28;20225;-84
2023/01/01 03:28:31;;;;;;;6.90;3.90;;;13.50;99.90;;;;;;5029488;28;20172;-84
2023/01/01 03:30:58;;;;;;;9.50;3.40;;;13.50;99.90;;;;;;5029682;28;20174;-84
2023/01/01 03:33:32;;;;;;;10.52;3.33;;;13.50;99.90;;;;;;5014134;28;20233;-84
2023/01/01 03:36:11;;;;;;;7.63;3.20;;;13.40;99.90;;;;;;5029463;28;20203;-85
2023/01/01 03:38:42;;;;;;;8.15;3.45;;;13.40;99.90;;;;;;5014140;28;20199;-85
2023/01/01 03:41:33;;;;;;;11.90;4.05;;;13.40;99.90;;;;;;5029703;28;20483;-84
2023/01/01 03:44:06;;;;;;;6.85;2.65;;;13.40;99.90;;;;;;5032910;28;20533;-87
2023/01/01 03:46:35;;;;;;;9.23;3.25;;;13.50;99.90;;;;;;5033193;28;20207;-83
2023/01/01 03:49:04;;;;;;;7.63;3.00;;;13.50;99.90;;;;;;5017873;28;20175;-84
2023/01/01 03:51:39;;;;;;;6.95;2.75;;;13.50;99.90;;;;;;5032800;28;20198;-88
2023/01/01 03:54:36;;;;;;;8.05;3.10;;;13.50;99.90;;;;;;5017603;28;20171;-84
2023/01/01 03:57:27;;;;;;;5.40;2.83;;;13.50;99.90;;;;;;5012996;28;20278;-83
2023/01/01 04:00:06;;;;;;;6.45;2.78;;;13.40;99.90;;;;;;5032884;28;20178;-86
2023/01/01 04:02:41;;;;;;;10.82;3.03;;;13.50;99.90;;;;;;5017466;28;20155;-93
2023/01/01 04:05:09;;;;;;;9.02;2.97;;;13.50;99.90;;;;;;5017712;28;20170;-91
2023/01/01 04:07:35;;;;;;;5.30;3.28;;;13.50;99.90;;;;;;5016998;28;20329;-84
2023/01/01 04:10:15;;;;;;;9.75;2.85;;;13.50;99.90;;;;;;5017632;28;20198;-85
2023/01/01 04:12:50;;;;;;;7.28;2.90;;;13.50;99.90;;;;;;5017612;28;20164;-87
2023/01/01 04:15:23;;;;;;;8.48;3.25;;;13.50;99.90;;;;;;5033046;28;20179;-86
2023/01/01 04:17:50;;;;;;;11.85;2.78;;;13.50;99.90;;;;;;5017271;28;20206;-89
2023/01/01 04:20:15;;;;;;;7.05;2.40;;;13.50;99.90;;;;;;5017054;28;20202;-84
2023/01/01 04:22:41;;;;;;;6.25;3.15;;;13.40;99.90;;;;;;5025701;28;20190;-86
2023/01/01 04:25:08;;;;;;;5.35;2.58;;;13.50;99.90;;;;;;5052982;28;20197;-90
2023/01/01 04:27:34;;;;;;;5.30;2.78;;;13.50;99.90;;;;;;5035624;28;20618;-88
2023/01/01 04:29:59;;;;;;;8.43;2.90;;;13.50;99.90;;;;;;5036063;28;20206;-88
2023/01/01 04:32:25;;;;;;;10.95;3.00;;;13.40;99.90;;;;;;5037638;28;20258;-85
2023/01/01 04:34:51;;;;;;;10.15;2.65;;;13.30;99.90;;;;;;5037558;28;20170;-89
2023/01/01 04:37:16;;;;;;;8.43;2.80;;;13.30;99.90;;;;;;5037164;28;20170;-88
2023/01/01 04:39:42;;;;;;;6.32;2.78;;;13.30;99.90;;;;;;5035406;28;20175;-86
2023/01/01 04:42:08;;;;;;;4.82;2.85;;;13.40;99.90;;;;;;5052494;28;20633;-91
2023/01/01 04:44:34;;;;;;;8.45;3.10;;;13.40;99.90;;;;;;5036939;28;20178;-85
2023/01/01 04:46:59;;;;;;;8.80;2.80;;;13.30;99.90;;;;;;5037082;28;20550;-89
2023/01/01 04:49:25;;;;;;;6.00;2.80;;;13.30;99.90;;;;;;5035870;28;20174;-93
2023/01/01 04:51:51;;;;;;;9.90;2.97;;;13.30;99.90;;;;;;5036411;28;20261;-90
2023/01/01 04:54:16;;;;;;;8.20;3.05;;;13.40;99.90;;;;;;5036509;28;20170;-88
2023/01/01 04:56:42;;;;;;;9.90;2.88;;;13.40;99.90;;;;;;5035561;28;20186;-92
2023/01/01 04:59:08;;;;;;;7.90;2.90;;;13.30;99.90;;;;;;5036409;28;20651;-89
2023/01/01 05:01:33;;;;;;;8.50;2.95;;;13.30;99.90;;;;;;5035401;28;20221;-86
2023/01/01 05:04:00;;;;;;;13.13;2.60;;;13.30;99.90;;;;;;5052238;28;20229;-94
2023/01/01 05:06:27;;;;;;;7.70;2.60;;;13.30;99.90;;;;;;5036311;28;20525;-88
2023/01/01 05:08:54;;;;;;;6.45;2.80;;;13.30;99.90;;;;;;5034542;28;20285;-85
2023/01/01 05:11:26;;;;;;;6.53;2.80;;;13.20;99.90;;;;;;5051621;28;20587;-84
2023/01/01 05:13:54;;;;;;;4.30;2.72;;;13.20;99.90;;;;;;5034838;28;20167;-87
2023/01/01 05:16:22;;;;;;;8.00;2.97;;;13.20;99.90;;;;;;5036506;28;20262;-84
2023/01/01 05:18:48;;;;;;;10.32;3.33;;;13.20;99.90;;;;;;5036590;28;20167;-86
2023/01/01 05:21:20;;;;;;;11.55;2.97;;;13.10;99.90;;;;;;5035745;28;20177;-85
2023/01/01 05:23:46;;;;;;;7.32;3.20;;;13.10;99.90;;;;;;5035394;28;20636;-85
2023/01/01 05:26:20;;;;;;;5.25;2.78;;;13.10;99.90;;;;;;5051590;28;20535;-86
2023/01/01 05:28:46;;;;;;;6.03;2.83;;;13.10;99.90;;;;;;5035972;28;20166;-86
2023/01/01 05:31:14;;;;;;;6.28;3.00;;;13.10;99.90;;;;;;5034599;28;20563;-87
2023/01/01 05:33:40;;;;;;;7.38;3.38;;;13.00;99.90;;;;;;5034335;28;20175;-85
2023/01/01 05:36:08;;;;;;;5.57;2.63;;;13.10;99.90;;;;;;5035442;28;20182;-85
2023/01/01 05:38:34;;;;;;;5.85;2.72;;;13.10;99.90;;;;;;5033703;28;20175;-86
2023/01/01 05:41:05;;;;;;;8.57;2.90;;;13.20;99.90;;;;;;5035454;28;20181;-86
2023/01/01 05:43:31;;;;;;;6.80;2.53;;;13.20;99.90;;;;;;5035447;28;20177;-93
2023/01/01 05:46:17;;;;;;;4.07;2.72;;;13.20;99.90;;;;;;5034155;28;20618;-89
2023/01/01 05:48:43;;;;;;;9.13;2.72;;;13.30;99.90;;;;;;5034066;28;20602;-89
2023/01/01 05:51:13;;;;;;;4.35;2.70;;;13.20;99.90;;;;;;5033853;28;20174;-86
2023/01/01 05:53:39;;;;;;;5.68;2.92;;;13.20;99.90;;;;;;5034079;28;20325;-85
2023/01/01 05:56:06;;;;;;;8.90;3.38;;;13.20;99.90;;;;;;5034021;28;20187;-85
2023/01/01 05:58:34;;;;;;;7.78;3.30;;;13.20;99.90;;;;;;5034479;28;20663;-86
2023/01/01 06:01:20;;;;;;;5.22;3.10;;;13.20;99.90;;;;;;5034248;28;20175;-85
2023/01/01 06:03:49;;;;;;;6.00;3.17;;;13.30;99.90;;;;;;5034373;28;20167;-85
2023/01/01 06:06:18;;;;;;;7.68;3.38;;;13.20;99.90;;;;;;5033714;28;20206;-83
2023/01/01 06:08:50;;;;;;;7.72;3.00;;;13.20;99.90;;;;;;5033680;28;20174;-85
2023/01/01 06:11:16;;;;;;;8.30;3.25;;;13.20;99.90;;;;;;5035025;28;20193;-85
2023/01/01 06:13:42;;;;;;;5.97;3.35;;;13.20;99.90;;;;;;5033423;28;20187;-85
2023/01/01 06:16:08;;;;;;;5.90;3.28;;;13.20;99.90;;;;;;5033771;28;20216;-87
2023/01/01 06:18:35;;;;;;;5.57;3.30;;;13.20;99.90;;;;;;5035167;28;20583;-86
2023/01/01 06:21:16;;;;;;;6.72;3.28;;;13.20;99.90;;;;;;5035090;28;20174;-87
2023/01/01 06:23:41;;;;;;;5.38;3.35;;;13.10;99.90;;;;;;5033120;28;20189;-84
2023/01/01 06:26:11;;;;;;;12.73;3.55;;;13.10;99.90;;;;;;5034677;28;20198;-85
2023/01/01 06:28:37;;;;;;;5.43;3.05;;;13.10;99.90;;;;;;5034732;28;20175;-86
2023/01/01 06:31:05;;;;;;;8.85;3.47;;;13.10;99.90;;;;;;5034717;28;20178;-83
2023/01/01 06:33:31;;;;;;;6.93;3.28;;;13.10;99.90;;;;;;5032979;28;20186;-83
2023/01/01 06:36:00;;;;;;;8.80;3.60;;;13.00;99.90;;;;;;5034723;28;20221;-89
2023/01/01 06:38:26;;;;;;;8.48;2.90;;;13.00;99.90;;;;;;5035018;28;20189;-86
2023/01/01 06:40:59;;;;;;;7.05;3.08;;;13.00;99.90;;;;;;5033897;28;20225;-84
2023/01/01 06:43:25;;;;;;;5.40;3.20;;;13.00;99.90;;;;;;5049650;28;20182;-84
2023/01/01 06:46:17;;;;;;;6.30;3.17;;;13.00;99.90;;;;;;5033499;28;20244;-85
2023/01/01 06:48:43;;;;;;;6.30;3.50;;;13.00;99.90;;;;;;5033746;28;20240;-85
2023/01/01 06:51:11;;;;;;;6.85;3.25;;;13.00;99.90;;;;;;5033593;28;20607;-91
2023/01/01 06:53:37;;;;;;;8.27;2.90;;;13.00;99.90;;;;;;5033391;28;20237;-85
2023/01/01 06:56:03;;;;;;;9.50;3.40;;;13.00;99.90;;;;;;5033207;28;20210;-85
2023/01/01 06:58:29;;;;;;;11.30;3.58;;;13.00;99.90;;;;;;5033180;28;20174;-84
2023/01/01 07:01:18;;;;;;;9.07;3.33;;;13.00;99.90;;;;;;5035096;28;20167;-86
2023/01/01 07:03:50;;;;;;;5.22;3.30;;;12.90;99.90;;;;;;5032930;28;20269;-84
2023/01/01 07:06:16;;;;;;;5.85;2.80;;;12.90;99.90;;;;;;5032783;28;20207;-85
2023/01/01 07:08:41;;;;;;;7.65;3.28;;;12.90;99.90;;;;;;5031707;28;20261;-84
2023/01/01 07:11:07;;;;;;;7.68;3.20;;;12.80;99.90;;;;;;5033285;28;20179;-85
2023/01/01 07:13:33;;;;;;;5.30;2.90;;;12.80;99.90;;;;;;5032800;28;20241;-85
2023/01/01 07:15:59;;;;;;;5.43;2.97;;;12.70;99.90;;;;;;5034555;28;20175;-86
2023/01/01 07:18:25;;;;;;;6.03;2.95;;;12.80;99.90;;;;;;5035946;28;20654;-89
2023/01/01 07:20:55;;;;;;;7.50;3.67;;;12.70;99.90;;;;;;5038001;28;20672;-91
2023/01/01 07:23:21;;;;;;;5.55;2.92;;;12.80;99.90;;;;;;5036084;28;20189;-85
2023/01/01 07:25:51;;;;;;;7.63;3.40;;;12.70;99.90;;;;;;5037795;28;20179;-85
2023/01/01 07:28:17;;;;;;;7.30;3.08;;;12.70;99.90;;;;;;5035377;28;20268;-86
2023/01/01 07:30:43;;;;;;;11.65;3.40;;;12.70;99.90;;;;;;5019207;28;20277;-86
2023/01/01 07:33:14;;;;;;;7.68;3.30;;;12.70;99.90;;;;;;5036184;28;20621;-84
2023/01/01 07:35:40;;;;;;;7.78;3.38;;;12.70;99.90;;;;;;5034269;28;20197;-82
2023/01/01 07:38:06;;;;;;;12.25;3.40;;;12.80;99.90;;;;;;5036054;28;20184;-84
2023/01/01 07:40:32;;;;;;;9.68;3.88;;;12.70;99.90;;;;;;5037489;28;20189;-87
2023/01/01 07:42:57;;;;;;;5.55;3.45;;;12.70;99.90;;;;;;5028564;28;20171;-85
2023/01/01 07:45:24;;;;;;;7.00;4.05;;;12.80;99.90;;;;;;5023349;28;20193;-86
2023/01/01 07:47:53;;;;;;;7.68;3.65;;;12.80;99.90;;;;;;5036493;28;20660;-86
2023/01/01 07:50:20;;;;;;;6.80;3.53;;;12.90;99.90;;;;;;5036537;28;20514;-89
2023/01/01 07:52:46;;;;;;;4.93;3.33;;;12.90;99.90;;;;;;5035829;28;20226;-86
2023/01/01 07:55:13;;;;;;;6.90;4.13;;;12.80;99.90;;;;;;5036910;28;20196;-84
2023/01/01 07:57:41;;;;;;;8.98;3.75;;;12.80;99.90;;;;;;5036182;28;20206;-85
2023/01/01 08:00:08;;;;;;;12.68;3.67;;;12.80;99.90;;;;;;5036708;28;20186;-88
2023/01/01 08:02:33;;;;;;;8.40;3.75;;;12.90;99.90;;;;;;5035972;28;20174;-90
2023/01/01 08:04:59;;;;;;;6.65;3.50;;;12.90;99.90;;;;;;5036685;28;20277;-86
2023/01/01 08:07:25;;;;;;;8.02;4.35;;;12.90;99.90;;;;;;5034782;28;20213;-85
2023/01/01 08:09:50;;;;;;;6.60;4.10;;;12.90;99.90;;;;;;5036982;28;20170;-86
2023/01/01 08:12:16;;;;;;;8.38;3.78;;;12.90;99.90;;;;;;5035368;28;20407;-87
2023/01/01 08:14:42;;;;;;;11.00;4.10;;;12.90;99.90;;;;;;5035998;28;20677;-86
2023/01/01 08:17:07;;;;;;;6.50;3.80;;;13.00;99.90;;;;;;5035254;28;20240;-89
2023/01/01 08:19:33;;;;;;;7.75;4.20;;;13.00;99.90;;;;;;5027980;28;20613;-88
2023/01/01 08:21:59;;;;;;;8.25;4.45;;;13.00;99.90;;;;;;5018674;28;20186;-85
2023/01/01 08:24:24;;;;;;;5.35;3.47;;;13.00;99.90;;;;;;5051912;28;20183;-86
2023/01/01 08:26:51;;;;;;;7.72;3.88;;;13.00;99.90;;;;;;5044183;28;20218;-84
2023/01/01 08:29:17;;;;;;;7.63;4.40;;;13.00;99.90;;;;;;5034196;28;20191;-87
2023/01/01 08:31:43;;;;;;;7.25;3.67;;;13.10;99.90;;;;;;5024915;28;20531;-87
2023/01/01 08:34:08;;;;;;;6.97;3.75;;;13.10;99.90;;;;;;5034928;28;20205;-87
2023/01/01 08:36:35;;;;;;;6.55;3.40;;;13.20;99.90;;;;;;5035706;28;20578;-85
2023/01/01 08:39:01;;;;;;;9.55;4.28;;;13.20;99.90;;;;;;5031829;28;20199;-85
2023/01/01 08:41:26;;;;;;;10.80;3.88;;;13.20;99.90;;;;;;5035763;28;20528;-82
2023/01/01 08:43:52;;;;;;;8.80;3.97;;;13.20;99.90;;;;;;5035599;28;20179;-84
2023/01/01 08:46:18;;;;;;;8.55;4.05;;;13.20;99.90;;;;;;5034713;28;20210;-84
2023/01/01 08:48:44;;;;;;;10.30;3.58;;;13.20;99.90;;;;;;5034659;28;20183;-89
2023/01/01 08:51:10;;;;;;;9.13;3.45;;;13.20;99.90;;;;;;5033624;28;20210;-83
2023/01/01 08:53:35;;;;;;;9.32;4.13;;;13.20;99.90;;;;;;5033127;28;20226;-84
2023/01/01 08:56:04;;;;;;;7.45;3.40;;;13.30;99.90;;;;;;5024811;28;20214;-88
2023/01/01 08:58:31;;;;;;;7.88;3.47;;;13.30;99.90;;;;;;5026092;28;20265;-86
2023/01/01 09:00:58;;;;;;;6.78;3.95;;;13.30;99.90;;;;;;5032977;28;20621;-87
2023/01/01 09:03:24;;;;;;;7.85;3.55;;;13.20;99.90;;;;;;5033920;28;20209;-87
2023/01/01 09:05:51;;;;;;;8.85;3.95;;;13.20;99.90;;;;;;5033442;28;20190;-88
2023/01/01 09:08:16;;;;;;;7.60;3.38;;;13.20;99.90;;;;;;5032845;28;20269;-92
2023/01/01 09:10:43;;;;;;;10.40;3.40;;;13.20;99.90;;;;;;5034851;28;20179;-90
2023/01/01 09:13:09;;;;;;;7.43;3.25;;;13.20;99.90;;;;;;5035836;28;20186;-88
2023/01/01 09:15:35;;;;;;;9.90;3.28;;;13.20;99.90;;;;;;5035141;28;20228;-87
2023/01/01 09:18:01;;;;;;;5.22;3.45;;;13.20;99.90;;;;;;5034201;28;20178;-88
2023/01/01 09:20:26;;;;;;;6.68;3.45;;;13.20;99.90;;;;;;5035473;28;20174;-88
2023/01/01 09:22:52;;;;;;;5.95;3.05;;;13.20;99.90;;;;;;5033742;28;20190;-86
2023/01/01 09:25:18;;;;;;;5.07;3.10;;;13.20;99.90;;;;;;5034773;28;20207;-87
2023/01/01 09:27:44;;;;;;;3.80;2.78;;;13.20;99.90;;;;;;5033533;28;20214;-85
2023/01/01 09:30:10;;;;;;;8.43;2.80;;;13.30;99.90;;;;;;5033668;28;20170;-86
2023/01/01 09:32:35;;;;;;;6.00;3.00;;;13.30;99.90;;;;;;5034706;28;20178;-85
2023/01/01 09:35:01;;;;;;;5.45;2.90;;;13.30;99.90;;;;;;5034928;28;20186;-88
2023/01/01 09:37:27;;;;;;;6.20;2.70;;;13.20;99.90;;;;;;5034604;28;20525;-88
2023/01/01 09:39:53;;;;;;;5.25;2.97;;;13.20;99.90;;;;;;5034310;28;20233;-86
2023/01/01 09:42:44;;;;;;;8.60;3.10;;;13.30;99.90;;;;;;5033477;28;20519;-89
2023/01/01 09:45:35;;;;;;;5.80;3.00;;;13.30;99.90;;;;;;5034420;28;20155;-88
2023/01/01 09:48:13;;;;;;;6.88;2.72;;;13.30;99.90;;;;;;5049894;28;20312;-85
2023/01/01 09:50:41;;;;;;;4.63;2.40;;;13.30;99.90;;;;;;5034367;28;20165;-85
2023/01/01 09:53:40;;;;;;;6.18;2.80;;;13.20;99.90;;;;;;5034023;28;20226;-86
2023/01/01 09:56:13;;;;;;;6.43;3.10;;;13.20;99.90;;;;;;5035239;28;20197;-86
2023/01/01 09:58:39;;;;;;;7.78;2.53;;;13.10;99.90;;;;;;5033003;28;20332;-88
2023/01/01 10:01:23;;;;;;;5.60;2.97;;;13.10;99.90;;;;;;5034087;28;20669;-88
2023/01/01 10:04:11;;;;;;;5.40;3.00;;;13.10;99.90;;;;;;5034278;28;20598;-85
2023/01/01 10:06:45;;;;;;;6.47;2.88;;;13.10;99.90;;;;;;5049466;28;20206;-87
2023/01/01 10:09:22;;;;;;;4.65;2.50;;;13.10;99.90;;;;;;5034069;28;20223;-88
2023/01/01 10:12:16;;;;;;;5.43;2.40;;;13.20;99.90;;;;;;5032838;28;20186;-87
2023/01/01 10:14:47;;;;;;;4.20;2.50;;;13.10;99.90;;;;;;5049504;28;20193;-87
2023/01/01 10:17:51;;;;;;;4.13;2.20;;;13.10;99.90;;;;;;5034066;28;20235;-86
2023/01/01 10:20:26;;;;;;;8.25;2.35;;;13.10;99.90;;;;;;5032086;28;20198;-88
2023/01/01 10:23:01;;;;;;;5.75;2.22;;;13.10;99.90;;;;;;5032642;28;20243;-86
2023/01/01 10:25:30;;;;;;;3.67;2.22;;;13.00;99.90;;;;;;5033752;28;20489;-86
2023/01/01 10:28:05;;;;;;;6.55;2.40;;;13.00;99.90;;;;;;5033802;28;20210;-88
2023/01/01 10:30:31;;;;;;;5.65;2.60;;;13.00;99.90;;;;;;5034538;28;20166;-88
2023/01/01 10:32:58;;;;;;;5.45;2.35;;;13.00;99.90;;;;;;5033940;28;20173;-88
2023/01/01 10:35:34;;;;;;;6.60;2.53;;;12.90;99.90;;;;;;5032282;28;20178;-88
2023/01/01 10:38:02;;;;;;;3.22;2.10;;;13.00;99.90;;;;;;5033948;28;20537;-88
2023/01/01 10:40:28;;;;;;;6.05;2.00;;;13.00;99.90;;;;;;5032498;28;20265;-88
2023/01/01 10:42:57;;;;;;;3.45;1.95;;;13.10;99.90;;;;;;5032650;28;20182;-88
2023/01/01 10:45:33;;;;;;;4.10;1.85;;;13.10;99.90;;;;;;5032730;28;20248;-88
2023/01/01 10:48:14;;;;;;;1.73;1.00;;;13.30;99.90;;;;;;5032879;28;20296;-86
2023/01/01 10:50:42;;;;;;;4.03;1.10;;;13.40;99.90;;;;;;5035130;28;20233;-89
2023/01/01 10:53:30;;;;;;;5.13;1.35;;;13.50;99.90;;;;;;5037516;28;20245;-87
2023/01/01 10:56:18;;;;;;;5.13;1.10;;;13.40;99.90;;;;;;5037853;28;20169;-90
2023/01/01 10:58:46;;;;;;;4.70;1.40;;;13.40;99.90;;;;;;5037755;28;20174;-89
2023/01/01 11:01:26;;;;;;;2.35;1.17;;;13.40;99.90;;;;;;5037776;28;20637;-88
2023/01/01 11:04:01;;;;;;;3.83;1.00;;;13.40;99.90;;;;;;5036341;28;20223;-89
2023/01/01 11:06:33;;;;;;;1.85;1.17;;;13.40;99.90;;;;;;5036440;28;20213;-88
2023/01/01 11:09:05;;;;;;;4.00;1.42;;;13.40;99.90;;;;;;5036374;28;20187;-91
2023/01/01 11:11:45;;;;;;;2.95;1.05;;;13.40;99.90;;;;;;5037932;28;20596;-89
2023/01/01 11:14:34;;;;;;;4.05;1.25;;;13.40;99.90;;;;;;5036398;28;20661;-89
2023/01/01 11:17:00;;;;;;;3.40;1.05;;;13.30;99.90;;;;;;5038231;28;20162;-90
2023/01/01 11:19:38;;;;;;;3.63;1.08;;;13.30;99.90;;;;;;5037715;28;20365;-89
2023/01/01 11:22:04;;;;;;;3.70;1.05;;;13.10;99.90;;;;;;5037649;28;20253;-86
2023/01/01 11:24:34;;;;;;;5.22;1.35;;;13.00;99.90;;;;;;5037286;28;20178;-91
2023/01/01 11:27:19;;;;;;;3.25;1.40;;;12.90;99.90;;;;;;5037516;28;20202;-87
2023/01/01 11:29:45;;;;;;;2.10;1.27;;;12.90;99.90;;;;;;5037426;28;20166;-89
2023/01/01 11:32:19;;;;;;;3.88;1.30;;;12.90;99.90;;;;;;5036516;28;20178;-89
2023/01/01 11:34:47;;;;;;;5.97;1.30;;;12.90;99.90;;;;;;5035732;28;20174;-89
2023/01/01 11:37:13;;;;;;;3.53;1.45;;;12.90;99.90;;;;;;5036066;28;20182;-88
2023/01/01 11:39:48;;;;;;;5.55;1.60;;;12.90;99.90;;;;;;5052488;28;20178;-90
2023/01/01 11:42:21;;;;;;;4.85;1.67;;;12.90;99.90;;;;;;5036017;28;20200;-91
2023/01/01 11:45:12;;;;;;;7.15;1.75;;;12.90;99.90;;;;;;5035797;28;20236;-90
2023/01/01 11:47:39;;;;;;;3.50;1.40;;;12.90;99.90;;;;;;5035750;28;20202;-89
2023/01/01 11:50:24;;;;;;;5.20;1.63;;;12.90;99.90;;;;;;5036022;28;20224;-90
2023/01/01 11:52:51;;;;;;;3.47;1.30;;;12.80;99.90;;;;;;5035683;28;20237;-91
2023/01/01 11:55:22;;;;;;;3.92;1.55;;;12.80;99.90;;;;;;5036701;28;20187;-89
2023/01/01 11:57:57;;;;;;;5.60;1.67;;;12.80;99.90;;;;;;5052099;28;20566;-89
2023/01/01 12:00:23;;;;;;;3.50;1.27;;;12.70;99.90;;;;;;5036749;28;20173;-90
2023/01/01 12:03:00;;;;;;;4.72;1.10;;;12.70;99.90;;;;;;5034324;28;20174;-89
2023/01/01 12:05:45;;;;;;;3.75;1.35;;;12.60;99.90;;;;;;5035619;28;20186;-88
2023/01/01 12:08:18;;;;;;;2.85;1.00;;;12.60;99.90;;;;;;5035118;28;20308;-89
2023/01/01 12:11:04;;;;;;;2.08;0.90;;;12.60;99.90;;;;;;5036369;28;20167;-88
2023/01/01 12:13:41;;;;;;;4.18;1.00;;;12.50;99.90;;;;;;5045312;28;20190;-89
2023/01/01 12:16:13;;;;;;;1.52;0.60;;;12.50;99.90;;;;;;5036443;28;20589;-89
2023/01/01 12:18:55;;;;;;;2.88;0.90;;;12.50;99.90;;;;;;5035291;28;20277;-89
2023/01/01 12:21:24;;;;;;;3.60;0.75;;;12.50;99.90;;;;;;5035098;28;20320;-89
2023/01/01 12:23:50;;;;;;;1.55;1.00;;;12.50;99.90;;;;;;5036005;28;20183;-88
2023/01/01 12:26:20;;;;;;;3.33;0.70;;;12.40;99.90;;;;;;5036001;28;20206;-89
2023/01/01 12:28:55;;;;;;;3.05;0.77;;;12.40;99.90;;;;;;5035108;28;20600;-88
2023/01/01 12:31:47;;;;;;;1.52;0.85;;;12.40;99.90;;;;;;5036282;28;20162;-89
2023/01/01 12:34:29;;;;;;;1.65;0.70;;;12.40;99.90;;;;;;5034898;28;20170;-89
2023/01/01 12:37:45;;;;;;;3.25;1.25;;;12.40;99.90;;;;;;5034694;28;20667;-90
2023/01/01 12:40:33;;;;;;;2.53;0.85;;;12.40;99.90;;;;;;5034752;28;20640;-88
2023/01/01 12:43:00;;;;;;;1.50;0.85;;;12.30;99.90;;;;;;5034894;28;20306;-88
2023/01/01 12:45:38;;;;;;;3.05;0.63;;;12.30;99.90;;;;;;5034615;28;20178;-88
2023/01/01 12:48:22;;;;;;;3.35;1.15;;;12.30;99.90;;;;;;5051441;28;20615;-88
2023/01/01 12:51:13;;;;;;;2.05;1.10;;;12.30;99.90;;;;;;5036054;28;20175;-89
2023/01/01 12:54:03;;;;;;;5.30;0.95;;;12.20;99.90;;;;;;5035505;28;20234;-89
2023/01/01 12:56:56;;;;;;;3.40;0.90;;;12.30;99.90;;;;;;5035748;28;20167;-89
2023/01/01 12:59:28;;;;;;;4.45;0.80;;;12.30;99.90;;;;;;5051157;28;20183;-89
2023/01/01 13:01:59;;;;;;;1.55;0.90;;;12.30;99.90;;;;;;5051231;28;20183;-89
2023/01/01 13:04:25;;;;;;;2.88;1.00;;;12.30;99.90;;;;;;5034429;28;20240;-88
2023/01/01 13:07:02;;;;;;;2.63;0.77;;;12.30;99.90;;;;;;5034362;28;20206;-89
2023/01/01 13:09:34;;;;;;;2.72;0.75;;;12.40;99.90;;;;;;5033989;28;20232;-87